createdAt,value
2023-03-08T00:04:35.338Z,9.32
2023-03-08T00:09:38.920Z,9.98
2023-03-08T00:14:41.669Z,13.18
2023-03-08T00:19:44.880Z,7.43
2023-03-08T00:24:47.817Z,11.23
2023-03-08T00:29:50.453Z,11.07
2023-03-08T00:34:53.654Z,10.98
2023-03-08T00:39:56.428Z,10.38
2023-03-08T00:44:59.055Z,6.80
2023-03-08T00:50:01.682Z,8.20
2023-03-08T00:55:04.551Z,10.57
2023-03-08T01:00:11.276Z,7.63
2023-03-08T01:05:14.248Z,10.57
2023-03-08T01:10:17.316Z,12.45
2023-03-08T01:15:20.055Z,12.65
2023-03-08T01:20:22.763Z,13.73
2023-03-08T01:25:25.693Z,11.02
2023-03-08T01:30:28.560Z,8.40
2023-03-08T01:35:31.244Z,9.95
2023-03-08T01:40:33.963Z,9.38
2023-03-08T01:46:06.453Z,9.63
2023-03-08T01:51:13.640Z,12.07
2023-03-08T01:56:18.209Z,10.65
2023-03-08T02:01:21.519Z,10.98
2023-03-08T02:06:26.373Z,10.52
2023-03-08T02:11:29.320Z,7.07
2023-03-08T02:16:33.286Z,5.55
2023-03-08T02:21:36.623Z,5.63
2023-03-08T02:26:39.303Z,5.53
2023-03-08T02:31:42.077Z,6.57
2023-03-08T02:36:44.704Z,7.70
2023-03-08T02:41:47.710Z,5.60
2023-03-08T02:46:53.024Z,5.78
2023-03-08T02:51:55.760Z,5.55
2023-03-08T02:56:58.581Z,7.20
2023-03-08T03:02:01.388Z,4.15
2023-03-08T03:07:04.403Z,6.57
2023-03-08T03:12:08.951Z,6.35
2023-03-08T03:17:14.968Z,6.07
2023-03-08T03:22:17.935Z,6.25
2023-03-08T03:27:21.049Z,8.43
2023-03-08T03:32:24.205Z,9.45
2023-03-08T03:37:27.107Z,8.27
2023-03-08T03:42:32.087Z,8.02
2023-03-08T03:47:43.778Z,6.35
2023-03-08T03:52:47.213Z,5.70
2023-03-08T03:57:51.120Z,7.93
2023-03-08T04:03:03.542Z,5.85
2023-03-08T04:08:10.422Z,8.05
2023-03-08T04:13:18.136Z,7.95
2023-03-08T04:18:21.342Z,8.30
2023-03-08T04:23:24.123Z,7.68
2023-03-08T04:28:27.409Z,5.93
2023-03-08T04:33:30.307Z,6.03
2023-03-08T04:38:36.682Z,6.63
2023-03-08T04:43:48.723Z,6.50
2023-03-08T04:48:56.126Z,6.10
2023-03-08T04:54:02.103Z,6.13
2023-03-08T04:59:05.046Z,7.00
2023-03-08T05:04:09.463Z,6.78
2023-03-08T05:09:16.365Z,6.20
2023-03-08T05:19:25.883Z,7.13
2023-03-08T05:24:30.252Z,8.20
2023-03-08T05:29:37.561Z,6.70
2023-03-08T05:34:42.699Z,10.32
2023-03-08T05:39:53.208Z,10.20
2023-03-08T05:44:58.198Z,10.43
2023-03-08T05:50:06.373Z,7.07
2023-03-08T05:55:12.358Z,9.00
2023-03-08T06:00:16.206Z,9.98
2023-03-08T06:05:18.747Z,12.23
2023-03-08T06:10:23.127Z,11.23
2023-03-08T06:15:27.089Z,11.38
2023-03-08T06:20:31.604Z,11.23
2023-03-08T06:25:41.813Z,6.85
2023-03-08T06:30:46.888Z,4.13
2023-03-08T06:36:21.551Z,7.50
2023-03-08T06:41:25.997Z,6.40
2023-03-08T06:46:35.727Z,7.25
2023-03-08T06:51:38.600Z,5.90
2023-03-08T06:56:41.546Z,6.50
2023-03-08T07:01:45.598Z,4.22
2023-03-08T07:06:52.769Z,4.63
2023-03-08T07:11:55.757Z,5.80
2023-03-08T07:16:58.524Z,1.70
2023-03-08T07:22:01.282Z,3.85
2023-03-08T07:27:04.331Z,5.63
2023-03-08T07:32:07.730Z,6.45
2023-03-08T07:37:14.913Z,4.45
2023-03-08T07:42:17.852Z,5.82
2023-03-08T07:47:26.093Z,5.03
2023-03-08T07:52:29.982Z,5.13
2023-03-08T07:57:32.586Z,4.15
2023-03-08T08:02:36.316Z,5.05
2023-03-08T08:07:39.166Z,4.47
2023-03-08T08:12:41.820Z,7.28
2023-03-08T08:17:44.579Z,4.18
2023-03-08T08:22:47.352Z,4.35
2023-03-08T08:27:51.231Z,5.55
2023-03-08T08:32:53.991Z,5.28
2023-03-08T08:37:56.629Z,4.38
2023-03-08T08:42:59.371Z,5.32
2023-03-08T08:48:02.019Z,3.67
2023-03-08T08:53:08.101Z,6.55
2023-03-08T08:58:14.408Z,4.72
2023-03-08T09:03:17.163Z,3.67
2023-03-08T09:08:19.844Z,2.95
2023-03-08T09:13:22.553Z,3.72
2023-03-08T09:18:28.243Z,6.93
2023-03-08T09:23:30.980Z,5.68
2023-03-08T09:28:34.336Z,4.50
2023-03-08T09:33:37.248Z,3.50
2023-03-08T09:38:40.161Z,3.33
2023-03-08T09:43:49.061Z,5.65
2023-03-08T09:48:53.281Z,6.32
2023-03-08T09:54:00.250Z,6.77
2023-03-08T09:59:12.307Z,6.20
2023-03-08T10:04:46.466Z,8.50
2023-03-08T10:10:27.547Z,8.38
2023-03-08T10:15:32.360Z,10.93
2023-03-08T10:20:37.738Z,9.27
2023-03-08T10:25:40.753Z,10.35
2023-03-08T10:30:48.516Z,9.30
2023-03-08T10:36:13.038Z,9.40
2023-03-08T10:41:17.583Z,7.20
2023-03-08T10:46:25.519Z,8.73
2023-03-08T10:51:29.950Z,6.65
2023-03-08T10:56:52.222Z,6.93
2023-03-08T11:01:59.462Z,6.03
2023-03-08T11:07:11.893Z,6.47
2023-03-08T11:12:32.607Z,7.10
2023-03-08T11:17:46.691Z,7.07
2023-03-08T11:23:15.391Z,7.20
2023-03-08T11:28:59.620Z,6.80
2023-03-08T11:34:40.548Z,7.63
2023-03-08T11:40:19.111Z,8.27
2023-03-08T11:45:34.136Z,8.40
2023-03-08T11:50:39.654Z,6.93
2023-03-08T11:55:55.485Z,4.47
2023-03-08T12:01:02.830Z,4.97
2023-03-08T12:06:26.716Z,5.85
2023-03-08T12:11:41.936Z,6.05
2023-03-08T12:16:56.335Z,5.40
2023-03-08T12:22:05.081Z,4.75
2023-03-08T12:27:18.902Z,5.68
2023-03-08T12:32:22.493Z,4.75
2023-03-08T12:37:28.089Z,4.88
2023-03-08T12:42:33.041Z,5.57
2023-03-08T12:47:35.885Z,5.18
2023-03-08T12:52:38.900Z,5.22
2023-03-08T12:57:48.881Z,4.70
2023-03-08T13:03:14.658Z,4.78
2023-03-08T13:08:19.201Z,5.05
2023-03-08T13:14:02.402Z,4.78
2023-03-08T13:19:27.002Z,5.00
2023-03-08T13:30:13.129Z,4.93
2023-03-08T13:35:17.193Z,4.65
2023-03-08T13:40:21.424Z,6.00
2023-03-08T13:45:24.575Z,6.40
2023-03-08T13:50:33.030Z,6.05
2023-03-08T13:55:39.841Z,5.97
2023-03-08T14:00:42.792Z,4.97
2023-03-08T14:05:47.948Z,5.97
2023-03-08T14:10:59.889Z,5.10
2023-03-08T14:16:35.983Z,5.28
2023-03-08T14:22:03.097Z,5.50
2023-03-08T14:27:17.775Z,6.28
2023-03-08T14:32:32.050Z,5.28
2023-03-08T14:37:36.139Z,7.05
2023-03-08T14:42:55.268Z,7.70
2023-03-08T14:48:01.288Z,6.72
2023-03-08T14:53:04.761Z,4.30
2023-03-08T14:58:15.041Z,3.88
2023-03-08T15:03:17.694Z,6.57
2023-03-08T15:08:21.343Z,8.45
2023-03-08T15:13:25.145Z,7.55
2023-03-08T15:18:27.966Z,6.10
2023-03-08T15:23:33.337Z,4.65
2023-03-08T15:28:35.982Z,5.18
2023-03-08T15:33:38.682Z,5.30
2023-03-08T15:38:41.614Z,5.47
2023-03-08T15:43:44.675Z,6.00
2023-03-08T15:48:47.344Z,4.25
2023-03-08T15:53:50.383Z,5.90
2023-03-08T15:58:54.157Z,5.40
2023-03-08T16:03:57.425Z,6.40
2023-03-08T16:09:00.189Z,5.47
2023-03-08T16:14:02.892Z,5.78
2023-03-08T16:19:05.641Z,6.53
2023-03-08T16:24:09.208Z,6.90
2023-03-08T16:29:11.905Z,4.10
2023-03-08T16:34:22.563Z,6.53
2023-03-08T16:39:26.381Z,5.00
2023-03-08T16:44:30.844Z,2.30
2023-03-08T16:49:33.479Z,6.78
2023-03-08T16:54:36.344Z,4.43
2023-03-08T16:59:41.201Z,5.13
2023-03-08T17:04:44.555Z,6.88
2023-03-08T17:09:47.403Z,4.22
2023-03-08T17:14:50.346Z,3.85
2023-03-08T17:19:54.375Z,2.17
2023-03-08T17:24:57.110Z,3.03
2023-03-08T17:30:01.200Z,4.63
2023-03-08T17:35:04.233Z,3.35
2023-03-08T17:40:08.129Z,3.17
2023-03-08T17:45:11.629Z,3.50
2023-03-08T17:50:14.545Z,5.57
2023-03-08T17:55:17.795Z,6.63
2023-03-08T18:00:20.712Z,5.50
2023-03-08T18:05:23.396Z,3.00
2023-03-08T18:10:26.259Z,3.78
2023-03-08T18:15:29.130Z,3.15
2023-03-08T18:20:31.783Z,3.80
2023-03-08T18:25:35.008Z,2.75
2023-03-08T18:30:38.637Z,3.63
2023-03-08T18:35:41.397Z,4.80
2023-03-08T18:40:44.209Z,3.67
2023-03-08T18:45:59.499Z,4.35
2023-03-08T18:51:02.251Z,3.50
2023-03-08T18:56:05.173Z,1.98
2023-03-08T19:01:13.848Z,2.15
2023-03-08T19:06:16.674Z,2.17
2023-03-08T19:11:24.901Z,2.17
2023-03-08T19:16:32.934Z,3.42
2023-03-08T19:21:38.618Z,1.83
2023-03-08T19:26:43.443Z,2.70
2023-03-08T19:31:51.857Z,1.35
2023-03-08T19:36:55.106Z,2.92
2023-03-08T19:42:00.339Z,2.00
2023-03-08T19:47:04.890Z,1.95
2023-03-08T19:52:07.969Z,1.42
2023-03-08T19:57:10.924Z,1.58
2023-03-08T20:02:14.105Z,1.63
2023-03-08T20:07:19.687Z,2.22
2023-03-08T20:12:22.450Z,1.63
2023-03-08T20:17:25.153Z,1.50
2023-03-08T20:22:27.803Z,1.30
2023-03-08T20:27:30.579Z,2.78
2023-03-08T20:32:33.224Z,2.53
2023-03-08T20:37:35.865Z,1.08
2023-03-08T20:42:38.573Z,1.77
2023-03-08T20:47:41.294Z,2.55
2023-03-08T20:52:43.924Z,1.70
2023-03-08T20:57:46.587Z,3.60
2023-03-08T21:02:49.341Z,1.13
2023-03-08T21:07:52.035Z,3.05
2023-03-08T21:12:54.750Z,1.70
2023-03-08T21:17:57.432Z,1.95
2023-03-08T21:23:00.017Z,1.67
2023-03-08T21:28:02.693Z,2.28
2023-03-08T21:33:05.416Z,1.53
2023-03-08T21:38:08.629Z,1.65
2023-03-08T21:43:11.364Z,2.10
2023-03-08T21:48:14.047Z,1.50
2023-03-08T21:53:16.786Z,1.02
2023-03-08T21:58:19.709Z,3.33
2023-03-08T22:03:22.388Z,1.48
2023-03-08T22:08:25.563Z,1.47
2023-03-08T22:13:28.216Z,1.90
2023-03-08T22:18:32.084Z,2.03
2023-03-08T22:23:34.793Z,1.85
2023-03-08T22:28:38.362Z,1.30
2023-03-08T22:33:42.378Z,2.38
2023-03-08T22:38:45.110Z,2.40
2023-03-08T22:43:48.528Z,0.85
2023-03-08T22:48:52.939Z,1.63
2023-03-08T22:53:56.478Z,3.22
2023-03-08T22:58:59.982Z,2.65
2023-03-08T23:04:04.109Z,2.08
2023-03-08T23:09:08.457Z,1.65
2023-03-08T23:14:11.724Z,2.78
2023-03-08T23:19:17.156Z,3.40
2023-03-08T23:24:20.582Z,1.45
2023-03-08T23:29:23.256Z,1.73
2023-03-08T23:34:26.033Z,2.10
2023-03-08T23:39:28.648Z,2.00
2023-03-08T23:44:31.300Z,4.68
2023-03-08T23:49:34.300Z,2.80
2023-03-08T23:54:37.012Z,3.58
2023-03-08T23:59:39.687Z,1.48
